createdAt,value
2022-11-29T00:01:06.257Z,87.57
2022-11-29T00:03:50.915Z,88.03
2022-11-29T00:06:35.872Z,88.43
2022-11-29T00:09:19.438Z,88.26
2022-11-29T00:12:12.243Z,88.61
2022-11-29T00:14:55.760Z,88.06
2022-11-29T00:17:39.250Z,88.47
2022-11-29T00:20:23.678Z,88.41
2022-11-29T00:23:07.347Z,89.00
2022-11-29T00:25:50.859Z,88.89
2022-11-29T00:28:35.979Z,88.54
2022-11-29T00:31:30.497Z,88.07
2022-11-29T00:34:14.098Z,88.13
2022-11-29T00:36:57.682Z,87.81
2022-11-29T00:39:41.332Z,87.80
2022-11-29T00:42:24.879Z,87.85
2022-11-29T00:45:09.511Z,87.65
2022-11-29T00:47:53.165Z,87.73
2022-11-29T00:50:36.650Z,88.30
2022-11-29T00:53:20.124Z,88.28
2022-11-29T00:56:05.635Z,88.19
2022-11-29T00:58:49.554Z,87.50
2022-11-29T01:01:33.197Z,87.61
2022-11-29T01:04:17.608Z,87.75
2022-11-29T01:07:01.164Z,87.87
2022-11-29T01:09:44.625Z,87.26
2022-11-29T01:12:28.134Z,87.50
2022-11-29T01:15:11.961Z,86.91
2022-11-29T01:17:55.619Z,87.63
2022-11-29T01:20:39.107Z,87.92
2022-11-29T01:23:22.595Z,87.15
2022-11-29T01:26:11.781Z,87.66
2022-11-29T01:28:57.612Z,87.49
2022-11-29T01:31:41.210Z,87.05
2022-11-29T01:34:24.709Z,86.68
2022-11-29T01:37:08.618Z,86.91
2022-11-29T01:39:52.096Z,86.88
2022-11-29T01:42:35.574Z,86.52
2022-11-29T01:45:26.474Z,86.35
2022-11-29T01:48:12.487Z,86.56
2022-11-29T01:51:01.399Z,86.44
2022-11-29T01:53:45.317Z,86.42
2022-11-29T01:56:32.791Z,86.36
2022-11-29T01:59:29.632Z,87.36
2022-11-29T02:02:28.344Z,87.50
2022-11-29T02:05:17.254Z,87.18
2022-11-29T02:08:02.091Z,87.52
2022-11-29T02:11:09.822Z,88.09
2022-11-29T02:14:22.830Z,88.32
2022-11-29T02:17:18.381Z,87.42
2022-11-29T02:20:23.070Z,87.45
2022-11-29T02:23:25.479Z,87.78
2022-11-29T02:26:48.910Z,87.85
2022-11-29T02:30:05.373Z,88.18
2022-11-29T02:33:12.906Z,87.49
2022-11-29T02:36:27.334Z,87.38
2022-11-29T02:39:16.718Z,86.71
2022-11-29T02:42:54.404Z,87.41
2022-11-29T02:46:23.498Z,88.01
2022-11-29T02:49:28.083Z,88.16
2022-11-29T02:52:35.811Z,88.19
2022-11-29T02:55:44.617Z,87.64
2022-11-29T02:58:58.640Z,88.42
2022-11-29T03:02:08.555Z,88.89
2022-11-29T03:05:17.496Z,88.23
2022-11-29T03:08:25.754Z,88.17
2022-11-29T03:11:30.066Z,88.40
2022-11-29T03:14:28.426Z,88.71
2022-11-29T03:18:09.441Z,88.35
2022-11-29T03:21:22.591Z,88.56
2022-11-29T03:24:23.678Z,88.36
2022-11-29T03:27:16.596Z,89.20
2022-11-29T03:30:07.591Z,88.71
2022-11-29T03:33:09.487Z,88.55
2022-11-29T03:36:14.086Z,89.04
2022-11-29T03:39:07.846Z,89.36
2022-11-29T03:42:06.405Z,89.37
2022-11-29T03:45:15.360Z,88.75
2022-11-29T03:48:40.836Z,88.71
2022-11-29T03:51:59.783Z,89.22
2022-11-29T03:54:56.618Z,89.35
2022-11-29T03:58:10.219Z,89.37
2022-11-29T04:01:11.306Z,89.56
2022-11-29T04:04:36.502Z,89.28
2022-11-29T04:07:54.313Z,89.37
2022-11-29T04:11:05.428Z,89.47
2022-11-29T04:14:33.100Z,89.93
2022-11-29T04:17:42.648Z,89.82
2022-11-29T04:21:12.666Z,89.55
2022-11-29T04:24:10.483Z,89.65
2022-11-29T04:27:49.315Z,89.16
2022-11-29T04:30:57.659Z,88.84
2022-11-29T04:33:59.003Z,89.11
2022-11-29T04:37:13.270Z,88.95
2022-11-29T04:40:48.157Z,89.40
2022-11-29T04:44:05.595Z,89.54
2022-11-29T04:47:07.869Z,89.58
2022-11-29T04:50:19.019Z,89.03
2022-11-29T04:53:52.142Z,89.48
2022-11-29T04:57:17.858Z,88.82
2022-11-29T05:00:12.687Z,88.88
2022-11-29T05:03:04.699Z,89.26
2022-11-29T05:06:17.275Z,89.81
2022-11-29T05:09:36.784Z,89.61
2022-11-29T05:12:35.356Z,89.29
2022-11-29T05:15:55.921Z,88.96
2022-11-29T05:19:37.329Z,88.84
2022-11-29T05:22:32.824Z,88.83
2022-11-29T05:25:46.117Z,88.50
2022-11-29T05:29:01.589Z,88.19
2022-11-29T05:32:39.730Z,88.85
2022-11-29T05:35:53.033Z,89.21
2022-11-29T05:39:02.811Z,89.31
2022-11-29T05:41:55.587Z,89.46
2022-11-29T05:44:49.488Z,89.31
2022-11-29T05:47:47.900Z,89.49
2022-11-29T05:50:45.743Z,89.30
2022-11-29T05:54:08.296Z,89.08
2022-11-29T05:57:29.175Z,89.50
2022-11-29T06:00:16.874Z,90.14
2022-11-29T06:03:06.612Z,89.53
2022-11-29T06:06:01.087Z,89.68
2022-11-29T06:09:23.600Z,89.53
2022-11-29T06:12:21.247Z,89.49
2022-11-29T06:15:17.319Z,89.46
2022-11-29T06:18:32.630Z,89.19
2022-11-29T06:21:40.308Z,89.17
2022-11-29T06:25:01.516Z,89.84
2022-11-29T06:28:08.358Z,89.45
2022-11-29T06:31:21.236Z,88.62
2022-11-29T06:34:20.397Z,88.54
2022-11-29T06:37:35.494Z,88.61
2022-11-29T06:40:19.076Z,88.33
2022-11-29T06:43:03.081Z,88.63
2022-11-29T06:45:57.109Z,88.26
2022-11-29T06:49:02.071Z,88.37
2022-11-29T06:51:58.303Z,88.47
2022-11-29T06:55:02.900Z,88.84
2022-11-29T06:58:46.038Z,88.70
2022-11-29T07:02:24.595Z,88.42
2022-11-29T07:05:25.504Z,88.72
2022-11-29T07:08:22.884Z,88.19
2022-11-29T07:11:06.860Z,88.71
2022-11-29T07:13:51.072Z,88.41
2022-11-29T07:16:59.880Z,88.85
2022-11-29T07:20:18.162Z,88.06
2022-11-29T07:23:14.155Z,88.27
2022-11-29T07:26:36.160Z,87.93
2022-11-29T07:30:13.533Z,88.81
2022-11-29T07:33:05.706Z,88.85
2022-11-29T07:36:09.426Z,88.63
2022-11-29T07:39:15.638Z,88.29
2022-11-29T07:42:31.501Z,88.89
2022-11-29T07:45:32.573Z,88.21
2022-11-29T07:48:17.919Z,88.34
2022-11-29T07:51:02.606Z,88.74
2022-11-29T07:53:48.936Z,88.08
2022-11-29T07:56:32.513Z,88.44
2022-11-29T07:59:16.598Z,88.93
2022-11-29T08:02:00.355Z,89.10
2022-11-29T08:04:47.070Z,89.31
2022-11-29T08:07:31.559Z,89.08
2022-11-29T08:10:17.189Z,88.49
2022-11-29T08:13:00.887Z,88.23
2022-11-29T08:15:48.680Z,88.15
2022-11-29T08:18:32.646Z,88.77
2022-11-29T08:21:18.179Z,88.60
2022-11-29T08:24:01.711Z,88.03
2022-11-29T08:26:45.326Z,88.25
2022-11-29T08:29:28.851Z,88.35
2022-11-29T08:32:12.495Z,88.60
2022-11-29T08:34:56.074Z,88.63
2022-11-29T08:37:39.657Z,87.87
2022-11-29T08:40:24.385Z,87.73
2022-11-29T08:43:08.035Z,87.99
2022-11-29T08:45:54.652Z,87.62
2022-11-29T08:48:38.537Z,87.96
2022-11-29T08:51:22.536Z,88.23
2022-11-29T08:54:06.132Z,87.89
2022-11-29T08:57:38.125Z,87.45
2022-11-29T08:59:53.409Z,87.29
2022-11-29T09:02:38.200Z,87.63
2022-11-29T09:05:21.780Z,87.16
2022-11-29T09:08:05.595Z,86.51
2022-11-29T09:10:49.550Z,87.07
2022-11-29T09:13:33.209Z,86.98
2022-11-29T09:16:23.686Z,86.59
2022-11-29T09:19:08.011Z,86.61
2022-11-29T09:21:51.729Z,86.71
2022-11-29T09:24:35.288Z,86.19
2022-11-29T09:27:18.810Z,86.78
2022-11-29T09:30:02.312Z,86.58
2022-11-29T09:32:46.426Z,85.90
2022-11-29T09:35:30.423Z,86.29
2022-11-29T09:38:15.113Z,85.90
2022-11-29T09:41:21.262Z,85.63
2022-11-29T09:44:46.250Z,86.44
2022-11-29T09:48:08.653Z,86.36
2022-11-29T09:51:30.242Z,86.00
2022-11-29T09:54:56.303Z,86.31
2022-11-29T09:57:44.185Z,84.96
2022-11-29T10:00:30.959Z,85.42
2022-11-29T10:03:33.496Z,85.78
2022-11-29T10:06:41.108Z,85.81
2022-11-29T10:09:33.917Z,85.48
2022-11-29T10:12:38.987Z,85.85
2022-11-29T10:15:32.091Z,85.32
2022-11-29T10:18:38.530Z,85.77
2022-11-29T10:21:32.184Z,85.68
2022-11-29T10:24:21.093Z,85.49
2022-11-29T10:27:22.717Z,85.46
2022-11-29T10:30:17.059Z,85.34
2022-11-29T10:33:00.958Z,85.04
2022-11-29T10:35:47.839Z,85.15
2022-11-29T10:38:32.097Z,84.87
2022-11-29T10:41:22.983Z,85.37
2022-11-29T10:44:06.839Z,85.12
2022-11-29T10:46:51.408Z,84.79
2022-11-29T10:49:37.854Z,84.57
2022-11-29T10:52:23.756Z,83.94
2022-11-29T10:55:14.995Z,83.60
2022-11-29T10:58:13.019Z,83.69
2022-11-29T11:01:07.506Z,83.75
2022-11-29T11:03:57.311Z,83.52
2022-11-29T11:06:56.839Z,84.02
2022-11-29T11:09:49.497Z,83.47
2022-11-29T11:12:35.202Z,83.57
2022-11-29T11:15:24.944Z,83.79
2022-11-29T11:18:22.933Z,83.57
2022-11-29T11:21:12.381Z,83.85
2022-11-29T11:24:03.122Z,83.25
2022-11-29T11:26:46.820Z,84.42
2022-11-29T11:29:52.657Z,83.89
2022-11-29T11:32:37.409Z,84.09
2022-11-29T11:35:24.394Z,83.81
2022-11-29T11:38:17.047Z,83.58
2022-11-29T11:41:17.192Z,83.02
2022-11-29T11:44:04.470Z,83.24
2022-11-29T11:46:52.917Z,83.04
2022-11-29T11:49:47.987Z,82.95
2022-11-29T11:52:54.585Z,83.07
2022-11-29T11:55:43.967Z,83.18
2022-11-29T11:59:00.096Z,83.46
2022-11-29T12:01:44.377Z,83.36
2022-11-29T12:04:36.047Z,82.49
2022-11-29T12:08:10.818Z,82.39
2022-11-29T12:11:07.239Z,82.37
2022-11-29T12:13:58.219Z,82.44
2022-11-29T12:16:45.377Z,82.54
2022-11-29T12:19:42.203Z,82.22
2022-11-29T12:22:41.520Z,82.02
2022-11-29T12:26:34.528Z,82.49
2022-11-29T12:29:22.987Z,83.20
2022-11-29T12:32:41.818Z,82.48
2022-11-29T12:35:51.418Z,82.33
2022-11-29T12:38:51.115Z,81.43
2022-11-29T12:41:56.658Z,82.13
2022-11-29T12:44:58.591Z,82.98
2022-11-29T12:48:22.894Z,82.80
2022-11-29T12:51:39.893Z,83.02
2022-11-29T12:54:52.949Z,82.45
2022-11-29T12:57:55.156Z,83.64
2022-11-29T13:01:19.747Z,83.58
2022-11-29T13:04:33.665Z,83.09
2022-11-29T13:08:33.054Z,83.19
2022-11-29T13:11:42.126Z,83.83
2022-11-29T13:14:46.160Z,83.69
2022-11-29T13:17:51.425Z,84.04
2022-11-29T13:21:25.645Z,84.95
2022-11-29T13:24:36.034Z,84.22
2022-11-29T13:27:33.301Z,83.29
2022-11-29T13:30:17.377Z,84.14
2022-11-29T13:33:48.114Z,83.79
2022-11-29T13:36:54.129Z,83.05
2022-11-29T13:40:05.476Z,83.37
2022-11-29T13:43:12.706Z,83.69
2022-11-29T13:46:43.587Z,84.00
2022-11-29T13:49:57.037Z,83.26
2022-11-29T13:52:47.834Z,82.60
2022-11-29T13:55:31.807Z,82.77
2022-11-29T13:58:17.416Z,83.40
2022-11-29T14:01:14.591Z,83.02
2022-11-29T14:04:07.712Z,83.10
2022-11-29T14:07:19.579Z,83.51
2022-11-29T14:10:17.132Z,83.73
2022-11-29T14:13:01.973Z,83.85
2022-11-29T14:15:57.458Z,83.84
2022-11-29T14:19:06.572Z,83.42
2022-11-29T14:21:59.051Z,84.06
2022-11-29T14:24:55.032Z,83.73
2022-11-29T14:27:56.450Z,83.36
2022-11-29T14:31:02.977Z,82.56
2022-11-29T14:34:12.183Z,83.19
2022-11-29T14:37:21.119Z,82.58
2022-11-29T14:40:27.937Z,82.43
2022-11-29T14:43:37.869Z,82.27
2022-11-29T14:46:33.036Z,83.32
2022-11-29T14:49:26.525Z,82.64
2022-11-29T14:52:16.135Z,82.26
2022-11-29T14:55:06.098Z,83.49
2022-11-29T14:58:15.847Z,83.69
2022-11-29T15:01:09.568Z,83.79
2022-11-29T15:03:56.193Z,83.44
2022-11-29T15:06:47.483Z,84.03
2022-11-29T15:09:38.290Z,83.19
2022-11-29T15:12:27.502Z,83.04
2022-11-29T15:15:48.673Z,83.47
2022-11-29T15:19:02.583Z,82.93
2022-11-29T15:21:48.930Z,83.16
2022-11-29T15:24:32.493Z,83.11
2022-11-29T15:27:19.925Z,83.90
2022-11-29T15:30:37.015Z,83.56
2022-11-29T15:33:25.931Z,83.38
2022-11-29T15:36:20.996Z,82.89
2022-11-29T15:39:04.568Z,83.10
2022-11-29T15:41:48.007Z,83.02
2022-11-29T15:44:32.911Z,82.97
2022-11-29T15:47:25.878Z,83.05
2022-11-29T15:50:33.570Z,83.69
2022-11-29T15:53:27.612Z,83.74
2022-11-29T15:56:39.610Z,84.27
2022-11-29T15:59:58.588Z,84.74
2022-11-29T16:02:58.173Z,84.34
2022-11-29T16:05:42.310Z,85.75
2022-11-29T16:08:33.280Z,85.17
2022-11-29T16:11:21.107Z,84.18
2022-11-29T16:14:16.858Z,85.34
2022-11-29T16:17:02.530Z,85.54
2022-11-29T16:19:47.139Z,86.43
2022-11-29T16:22:32.302Z,85.78
2022-11-29T16:25:20.102Z,86.67
2022-11-29T16:28:04.281Z,86.94
2022-11-29T16:30:48.257Z,86.32
2022-11-29T16:33:32.725Z,85.75
2022-11-29T16:36:20.174Z,86.71
2022-11-29T16:39:21.935Z,86.50
2022-11-29T16:42:26.372Z,85.90
2022-11-29T16:45:34.565Z,85.75
2022-11-29T16:48:25.617Z,86.23
2022-11-29T16:51:14.940Z,86.62
2022-11-29T16:54:20.480Z,86.04
2022-11-29T16:57:06.454Z,86.25
2022-11-29T16:59:50.925Z,85.47
2022-11-29T17:02:34.423Z,86.23
2022-11-29T17:05:18.142Z,86.06
2022-11-29T17:08:01.848Z,86.04
2022-11-29T17:10:45.420Z,86.12
2022-11-29T17:13:29.045Z,86.26
2022-11-29T17:16:19.453Z,85.84
2022-11-29T17:19:03.257Z,85.16
2022-11-29T17:21:46.844Z,85.27
2022-11-29T17:24:30.692Z,85.37
2022-11-29T17:27:14.306Z,85.37
2022-11-29T17:30:05.947Z,85.91
2022-11-29T17:33:02.959Z,85.70
2022-11-29T17:35:47.554Z,85.32
2022-11-29T17:38:31.022Z,85.44
2022-11-29T17:41:22.515Z,85.61
2022-11-29T17:44:05.950Z,85.65
2022-11-29T17:46:49.425Z,85.94
2022-11-29T17:49:32.907Z,86.18
2022-11-29T17:52:16.434Z,86.50
2022-11-29T17:54:59.880Z,85.94
2022-11-29T17:57:43.481Z,86.05
2022-11-29T18:00:27.082Z,85.99
2022-11-29T18:03:10.529Z,85.56
2022-11-29T18:05:57.567Z,86.03
2022-11-29T18:08:45.021Z,86.53
2022-11-29T18:11:46.893Z,86.43
2022-11-29T18:14:32.791Z,86.28
2022-11-29T18:17:16.766Z,85.87
2022-11-29T18:20:00.224Z,86.42
2022-11-29T18:22:43.796Z,86.06
2022-11-29T18:25:42.654Z,85.76
2022-11-29T18:28:29.088Z,86.47
2022-11-29T18:31:28.391Z,86.55
2022-11-29T18:34:14.098Z,86.59
2022-11-29T18:36:57.881Z,86.03
2022-11-29T18:39:41.307Z,86.64
2022-11-29T18:42:24.751Z,86.53
2022-11-29T18:45:08.432Z,86.98
2022-11-29T18:47:51.889Z,86.83
2022-11-29T18:50:35.362Z,86.33
2022-11-29T18:53:18.839Z,86.42
2022-11-29T18:56:13.501Z,86.68
2022-11-29T18:59:00.621Z,86.13
2022-11-29T19:01:47.554Z,85.87
2022-11-29T19:04:31.612Z,86.00
2022-11-29T19:07:15.146Z,86.19
2022-11-29T19:09:58.629Z,86.07
2022-11-29T19:12:42.113Z,86.54
2022-11-29T19:15:25.616Z,87.34
2022-11-29T19:18:09.084Z,86.74
2022-11-29T19:20:53.652Z,86.58
2022-11-29T19:23:37.988Z,87.01
2022-11-29T19:26:22.962Z,86.92
2022-11-29T19:29:06.711Z,86.70
2022-11-29T19:31:50.581Z,86.65
2022-11-29T19:34:34.056Z,86.64
2022-11-29T19:37:17.508Z,87.29
2022-11-29T19:40:01.001Z,87.23
2022-11-29T19:42:50.749Z,86.25
2022-11-29T19:45:34.561Z,86.76
2022-11-29T19:48:18.016Z,87.10
2022-11-29T19:51:01.517Z,86.83
2022-11-29T19:53:46.529Z,86.97
2022-11-29T19:56:31.697Z,87.07
2022-11-29T19:59:15.289Z,87.40
2022-11-29T20:01:59.180Z,87.32
2022-11-29T20:04:43.439Z,87.70
2022-11-29T20:07:27.021Z,87.09
2022-11-29T20:10:10.960Z,87.90
2022-11-29T20:12:55.156Z,87.68
2022-11-29T20:15:38.663Z,88.11
2022-11-29T20:18:22.179Z,87.42
2022-11-29T20:21:08.247Z,87.32
2022-11-29T20:24:01.029Z,87.51
2022-11-29T20:26:47.633Z,87.23
2022-11-29T20:29:33.011Z,87.80
2022-11-29T20:32:17.763Z,87.16
2022-11-29T20:35:02.654Z,87.06
2022-11-29T20:38:22.614Z,86.76
2022-11-29T20:41:29.178Z,86.79
2022-11-29T20:44:21.387Z,87.29
2022-11-29T20:47:18.620Z,87.36
2022-11-29T20:50:02.443Z,87.85
2022-11-29T20:53:26.648Z,87.62
2022-11-29T20:56:12.161Z,87.57
2022-11-29T20:58:56.402Z,88.10
2022-11-29T21:01:39.873Z,87.67
2022-11-29T21:04:23.807Z,88.16
2022-11-29T21:07:07.326Z,87.31
2022-11-29T21:09:50.756Z,87.47
2022-11-29T21:12:35.118Z,87.38
2022-11-29T21:15:19.185Z,87.30
2022-11-29T21:18:02.953Z,86.85
2022-11-29T21:21:24.812Z,87.22
2022-11-29T21:24:46.035Z,87.84
2022-11-29T21:27:33.986Z,87.91
2022-11-29T21:30:24.366Z,88.04
2022-11-29T21:33:08.952Z,87.57
2022-11-29T21:35:58.013Z,87.26
2022-11-29T21:38:41.881Z,86.64
2022-11-29T21:41:25.322Z,87.64
2022-11-29T21:44:08.980Z,87.81
2022-11-29T21:46:52.581Z,86.69
2022-11-29T21:49:36.486Z,86.84
2022-11-29T21:52:22.784Z,86.92
2022-11-29T21:55:07.169Z,87.64
2022-11-29T21:57:50.605Z,86.83
2022-11-29T22:00:37.398Z,86.51
2022-11-29T22:03:21.565Z,86.48
2022-11-29T22:06:09.130Z,87.03
2022-11-29T22:08:53.022Z,86.91
2022-11-29T22:11:36.603Z,87.41
2022-11-29T22:14:20.127Z,87.50
2022-11-29T22:17:03.527Z,86.63
2022-11-29T22:19:46.918Z,86.52
2022-11-29T22:22:31.391Z,87.08
2022-11-29T22:25:15.797Z,86.57
2022-11-29T22:27:59.256Z,86.79
2022-11-29T22:30:42.681Z,86.33
2022-11-29T22:33:26.491Z,86.55
2022-11-29T22:36:12.606Z,86.27
2022-11-29T22:38:58.545Z,86.18
2022-11-29T22:41:42.993Z,85.66
2022-11-29T22:44:26.568Z,86.10
2022-11-29T22:47:10.025Z,86.28
2022-11-29T22:49:53.646Z,86.85
2022-11-29T22:52:37.666Z,86.71
2022-11-29T22:55:22.914Z,86.62
2022-11-29T22:58:06.550Z,86.38
2022-11-29T23:00:50.079Z,86.54
2022-11-29T23:03:39.526Z,85.99
2022-11-29T23:06:32.633Z,85.79
2022-11-29T23:09:21.727Z,85.79
2022-11-29T23:12:05.363Z,85.26
2022-11-29T23:14:54.546Z,85.84
2022-11-29T23:17:39.681Z,86.11
2022-11-29T23:20:23.138Z,85.72
2022-11-29T23:23:06.758Z,86.15
2022-11-29T23:25:50.711Z,85.72
2022-11-29T23:28:35.903Z,85.09
2022-11-29T23:31:21.518Z,85.43
2022-11-29T23:34:05.584Z,85.39
2022-11-29T23:36:52.977Z,86.30
2022-11-29T23:39:36.736Z,86.06
2022-11-29T23:42:20.358Z,85.90
2022-11-29T23:45:04.131Z,85.88
2022-11-29T23:47:47.574Z,85.68
2022-11-29T23:50:30.990Z,86.44
2022-11-29T23:53:18.090Z,86.44
2022-11-29T23:56:15.333Z,86.42
2022-11-29T23:58:58.753Z,84.96
